Time;durP1;ratioP1;P1;durP2;ratioP2;P2;SDS_P1;SDS_P2;PMS_P1;PMS_P2;Temp;Humidity;BMP_temperature;BMP_pressure;BME280_temperature;BME280_humidity;BME280_pressure;Samples;Min_cycle;Max_cycle;Signal;HPM_P1;HPM_P2
2021/07/29 00:00:32;;;;;;;;;1.50;1.50;;;;;23.77;40.84;100880.16;5078710;27;45335;-55
2021/07/29 00:02:58;;;;;;;;;3.25;2.00;;;;;23.78;40.86;100879.22;5078097;27;46305;-56
2021/07/29 00:05:26;;;;;;;;;3.75;2.00;;;;;23.79;41.12;100880.09;5078289;27;45241;-53
2021/07/29 00:07:52;;;;;;;;;1.50;1.50;;;;;23.79;40.90;100882.72;5078417;27;45359;-49
2021/07/29 00:10:18;;;;;;;;;2.75;2.75;;;;;23.79;41.24;100880.09;5079060;27;45753;-51
2021/07/29 00:12:44;;;;;;;;;3.25;3.25;;;;;23.78;41.00;100884.50;5078337;27;45334;-54
2021/07/29 00:15:11;;;;;;;;;4.00;3.00;;;;;23.78;41.16;100884.50;5093944;27;45249;-51
2021/07/29 00:20:33;;;;;;;;;3.00;2.00;;;;;23.77;41.41;100874.03;5078266;27;45474;-54
2021/07/29 00:23:00;;;;;;;;;2.75;2.75;;;;;23.77;41.02;100882.81;5077894;27;47515;-56
2021/07/29 00:25:27;;;;;;;;;2.75;2.75;;;;;23.76;41.22;100875.81;5078089;27;45703;-50
2021/07/29 00:27:53;;;;;;;;;2.00;2.00;;;;;23.76;41.49;100880.28;5078159;27;45375;-50
2021/07/29 00:30:20;;;;;;;;;3.75;3.00;;;;;23.74;41.02;100877.75;5078646;27;45303;-47
2021/07/29 00:32:46;;;;;;;;;3.00;3.00;;;;;23.73;41.36;100881.34;5078031;27;46655;-49
2021/07/29 00:35:14;;;;;;;;;5.00;3.50;;;;;23.74;41.37;100880.41;5077834;27;45774;-51
2021/07/29 00:37:49;;;;;;;;;2.00;2.00;;;;;23.72;41.35;100874.34;5077949;27;45414;-52
2021/07/29 00:40:18;;;;;;;;;4.00;3.00;;;;;23.72;41.34;100877.00;5078151;28;45552;-50
2021/07/29 00:42:44;;;;;;;;;4.00;4.00;;;;;23.71;41.54;100877.97;5077590;27;45363;-50
2021/07/29 00:45:10;;;;;;;;;3.25;3.25;;;;;23.72;41.85;100884.94;5077691;27;45793;-52
2021/07/29 00:47:39;;;;;;;;;2.50;2.50;;;;;23.69;41.68;100866.63;5077709;27;45380;-51
2021/07/29 00:50:06;;;;;;;;;4.00;3.50;;;;;23.70;41.63;100873.63;5077847;27;45604;-47
2021/07/29 00:52:32;;;;;;;;;3.00;3.00;;;;;23.69;42.04;100873.72;5076161;28;46435;-49
2021/07/29 00:54:58;;;;;;;;;5.50;4.00;;;;;23.68;41.79;100878.16;5077447;28;45312;-50
2021/07/29 00:57:23;;;;;;;;;4.50;3.50;;;;;23.67;41.65;100873.81;5076961;27;45452;-47
2021/07/29 00:59:49;;;;;;;;;3.00;3.00;;;;;23.67;41.63;100873.81;5077101;27;45333;-47
2021/07/29 01:02:15;;;;;;;;;2.00;2.00;;;;;23.66;41.35;100879.22;5077195;27;46413;-50
2021/07/29 01:04:41;;;;;;;;;3.50;3.00;;;;;23.66;41.92;100879.22;5077594;27;45792;-48
2021/07/29 01:07:06;;;;;;;;;3.00;3.00;;;;;23.66;41.92;100877.41;5077444;27;45426;-50
2021/07/29 01:09:31;;;;;;;;;4.50;3.00;;;;;23.66;41.95;100877.41;5077640;28;45492;-53
2021/07/29 01:11:57;;;;;;;;;4.25;4.25;;;;;23.67;42.21;100880.91;5077051;27;45969;-54
2021/07/29 01:14:22;;;;;;;;;3.50;3.50;;;;;23.66;41.79;100876.56;5077055;27;45421;-53
2021/07/29 01:16:48;;;;;;;;;3.00;2.00;;;;;23.66;41.82;100885.34;5077454;27;45719;-50
2021/07/29 01:19:13;;;;;;;;;3.00;3.00;;;;;23.64;42.07;100879.34;5075879;28;45355;-54
2021/07/29 01:21:40;;;;;;;;;3.25;3.25;;;;;23.65;42.00;100882.81;5076879;27;45361;-51
2021/07/29 01:24:05;;;;;;;;;4.00;3.00;;;;;23.64;42.12;100887.28;5077052;27;45881;-46
2021/07/29 01:26:32;;;;;;;;;4.00;2.75;;;;;23.65;42.03;100888.94;5077205;28;45308;-52
2021/07/29 01:29:00;;;;;;;;;3.00;3.00;;;;;23.65;42.07;100888.09;5077254;27;45207;-54
2021/07/29 01:31:28;;;;;;;;;3.25;3.25;;;;;23.63;42.42;100890.88;5076971;27;46895;-54
2021/07/29 01:33:55;;;;;;;;;3.25;3.00;;;;;23.62;42.23;100894.47;5076867;27;45790;-48
2021/07/29 01:36:21;;;;;;;;;3.00;3.00;;;;;23.62;42.46;100894.47;5077269;27;45300;-48
2021/07/29 01:38:46;;;;;;;;;4.00;4.00;;;;;23.61;42.01;100893.59;5077048;27;45660;-53
2021/07/29 01:41:12;;;;;;;;;4.00;4.00;;;;;23.61;42.49;100890.13;5076569;27;49541;-53
2021/07/29 01:43:37;;;;;;;;;4.00;4.00;;;;;23.60;42.37;100888.41;5075641;28;45368;-54
2021/07/29 01:46:03;;;;;;;;;4.25;4.25;;;;;23.61;42.26;100892.75;5076870;27;45304;-55
2021/07/29 01:48:30;;;;;;;;;3.00;3.00;;;;;23.59;42.34;100894.66;5077013;27;45354;-53
2021/07/29 01:50:56;;;;;;;;;5.25;3.25;;;;;23.58;42.34;100899.13;5076538;27;45499;-51
2021/07/29 01:53:22;;;;;;;;;4.00;2.00;;;;;23.57;42.47;100891.25;5076254;27;59959;-51
2021/07/29 01:55:48;;;;;;;;;5.00;4.00;;;;;23.55;42.83;100894.03;5076641;27;45324;-50
2021/07/29 01:58:15;;;;;;;;;6.00;4.75;;;;;23.56;42.42;100892.22;5076387;27;45396;-52
2021/07/29 02:00:43;;;;;;;;;4.75;3.50;;;;;23.56;42.35;100890.44;5076402;27;47167;-49
2021/07/29 02:03:09;;;;;;;;;2.00;2.00;;;;;23.56;42.71;100889.56;5076610;27;45259;-51
2021/07/29 02:05:34;;;;;;;;;4.00;2.00;;;;;23.54;42.42;100891.47;5076561;27;45247;-52
2021/07/29 02:08:00;;;;;;;;;4.25;4.25;;;;;23.54;42.37;100891.47;5076741;27;45491;-50
2021/07/29 02:10:26;;;;;;;;;3.75;3.75;;;;;23.53;42.58;100892.44;5075956;27;46012;-52
2021/07/29 02:12:53;;;;;;;;;7.00;6.00;;;;;23.53;42.45;100895.91;5075392;27;46288;-53
2021/07/29 02:15:19;;;;;;;;;4.50;3.75;;;;;23.52;42.75;100898.69;5076457;27;45322;-57
2021/07/29 02:17:44;;;;;;;;;3.75;3.75;;;;;23.52;42.78;100888.09;5076798;27;45396;-53
2021/07/29 02:20:10;;;;;;;;;2.25;2.25;;;;;23.51;42.92;100892.53;5076324;27;45956;-51
2021/07/29 02:22:36;;;;;;;;;2.50;2.50;;;;;23.52;42.97;100890.75;5076117;27;45375;-51
2021/07/29 02:25:01;;;;;;;;;4.75;3.50;;;;;23.51;42.85;100896.97;5076430;27;45377;-47
2021/07/29 02:27:27;;;;;;;;;3.00;3.00;;;;;23.51;42.56;100894.34;5076498;27;45533;-50
2021/07/29 02:29:53;;;;;;;;;3.25;3.25;;;;;23.51;42.94;100894.34;5076459;27;50286;-49
2021/07/29 02:32:18;;;;;;;;;3.00;3.00;;;;;23.50;42.72;100893.47;5076221;28;45581;-48
2021/07/29 02:34:44;;;;;;;;;3.00;3.00;;;;;23.47;42.85;100894.53;5076417;27;45457;-51
2021/07/29 02:37:09;;;;;;;;;4.00;3.75;;;;;23.49;42.57;100896.22;5076463;27;45217;-51
2021/07/29 02:39:36;;;;;;;;;2.50;2.50;;;;;23.49;42.72;100898.88;5075816;27;46207;-50
2021/07/29 02:42:02;;;;;;;;;4.25;3.00;;;;;23.48;42.83;100900.69;5075858;27;45284;-51
2021/07/29 02:44:27;;;;;;;;;2.50;2.50;;;;;23.47;42.68;100896.34;5076099;27;45321;-48
2021/07/29 02:46:53;;;;;;;;;4.00;2.75;;;;;23.46;43.21;100903.41;5075305;27;45308;-49
2021/07/29 02:49:18;;;;;;;;;2.00;1.25;;;;;23.46;43.25;100905.22;5075871;27;45536;-49
2021/07/29 02:51:43;;;;;;;;;4.75;4.00;;;;;23.45;42.91;100914.94;5075591;28;55197;-51
2021/07/29 02:54:09;;;;;;;;;3.25;3.25;;;;;23.47;42.91;100905.13;5075759;27;45429;-50
2021/07/29 02:56:34;;;;;;;;;3.00;2.00;;;;;23.44;43.20;100907.97;5074678;28;45572;-52
2021/07/29 02:58:59;;;;;;;;;2.00;2.00;;;;;23.39;42.88;100904.78;5075684;27;50408;-53
2021/07/29 03:01:25;;;;;;;;;3.00;3.00;;;;;23.38;42.92;100905.75;5075896;27;48440;-49
2021/07/29 03:03:51;;;;;;;;;2.75;2.75;;;;;23.33;43.17;100907.81;5076006;27;45256;-50
2021/07/29 03:06:16;;;;;;;;;4.00;3.00;;;;;23.33;43.29;100913.13;5076057;27;45255;-48
2021/07/29 03:08:41;;;;;;;;;4.00;3.00;;;;;23.31;43.18;100920.31;5075802;27;45681;-55
2021/07/29 03:11:09;;;;;;;;;4.25;3.00;;;;;23.28;43.33;100913.41;5075801;27;45425;-48
2021/07/29 03:13:34;;;;;;;;;4.00;3.75;;;;;23.23;43.10;100919.97;5075872;27;45421;-51
2021/07/29 03:16:00;;;;;;;;;3.00;3.00;;;;;23.19;43.47;100923.75;5075906;27;45211;-48
2021/07/29 03:18:25;;;;;;;;;4.50;3.00;;;;;23.13;43.50;100925.81;5091522;27;46026;-50
2021/07/29 03:20:51;;;;;;;;;4.00;3.00;;;;;23.09;43.75;100924.34;5075493;27;45284;-46
2021/07/29 03:23:16;;;;;;;;;2.50;2.50;;;;;23.05;43.70;100925.47;5078970;28;45514;-49
2021/07/29 03:25:46;;;;;;;;;2.25;2.25;;;;;23.05;43.68;100924.63;5079231;27;45563;-49
2021/07/29 03:28:11;;;;;;;;;4.25;4.25;;;;;23.02;43.83;100915.09;5078723;27;45369;-51
2021/07/29 03:30:36;;;;;;;;;4.75;4.00;;;;;23.02;43.89;100920.38;5078453;28;60044;-53
2021/07/29 03:33:02;;;;;;;;;3.00;2.75;;;;;22.99;44.19;100916.16;5078953;27;45181;-52
2021/07/29 03:35:27;;;;;;;;;3.50;2.75;;;;;22.97;43.97;100911.91;5079450;27;45414;-50
2021/07/29 03:37:53;;;;;;;;;3.00;3.00;;;;;22.93;43.96;100908.59;5078843;27;46124;-50
2021/07/29 03:40:18;;;;;;;;;6.75;3.00;;;;;22.90;44.10;100911.47;5078832;27;45719;-53
2021/07/29 03:42:43;;;;;;;;;5.00;3.00;;;;;22.87;44.01;100918.75;5078855;27;45219;-52
2021/07/29 03:45:09;;;;;;;;;2.00;2.00;;;;;22.87;44.29;100921.38;5078854;27;45452;-52
2021/07/29 03:47:35;;;;;;;;;2.50;2.50;;;;;22.83;44.37;100918.94;5078582;27;45353;-51
2021/07/29 03:50:00;;;;;;;;;3.50;2.00;;;;;22.78;44.38;100921.00;5078626;27;45441;-54
2021/07/29 03:52:26;;;;;;;;;5.00;3.00;;;;;22.78;44.34;100921.00;5078972;27;45364;-56
2021/07/29 03:54:52;;;;;;;;;5.00;3.25;;;;;22.77;44.33;100921.94;5078652;27;45421;-49
2021/07/29 03:57:19;;;;;;;;;4.00;3.00;;;;;22.76;44.28;100912.34;5094070;27;47197;-53
2021/07/29 03:59:44;;;;;;;;;3.00;3.00;;;;;22.75;44.60;100926.50;5078243;27;45840;-49
2021/07/29 04:02:10;;;;;;;;;2.00;2.00;;;;;22.70;44.64;100929.44;5078591;27;45405;-52
2021/07/29 04:04:39;;;;;;;;;2.50;2.50;;;;;22.68;44.45;100926.03;5078581;27;45538;-49
2021/07/29 04:07:06;;;;;;;;;2.00;2.00;;;;;22.66;44.87;100927.06;5076883;28;48051;-47
2021/07/29 04:09:32;;;;;;;;;4.50;3.00;;;;;22.65;44.94;100928.03;5076861;28;45667;-50
2021/07/29 04:11:57;;;;;;;;;4.75;3.00;;;;;22.62;44.98;100936.97;5078647;27;45452;-48
2021/07/29 04:14:23;;;;;;;;;4.75;3.00;;;;;22.59;44.93;100931.03;5078478;27;45403;-50
2021/07/29 04:16:51;;;;;;;;;3.25;3.25;;;;;22.55;45.09;100931.22;5078106;27;45448;-48
2021/07/29 04:19:16;;;;;;;;;4.00;3.00;;;;;22.54;45.23;100934.81;5078068;27;45303;-48
2021/07/29 04:21:42;;;;;;;;;3.50;3.00;;;;;22.53;44.99;100933.16;5093942;27;45238;-47
2021/07/29 04:24:07;;;;;;;;;3.00;2.50;;;;;22.54;45.06;100931.34;5078252;27;45224;-47
2021/07/29 04:26:32;;;;;;;;;4.00;3.00;;;;;22.53;45.16;100937.56;5077914;27;45349;-49
2021/07/29 04:28:58;;;;;;;;;5.50;3.25;;;;;22.51;45.15;100932.38;5078474;27;45235;-47
2021/07/29 04:31:23;;;;;;;;;5.50;3.00;;;;;22.48;45.41;100937.03;5078110;27;45432;-47
2021/07/29 04:33:49;;;;;;;;;2.50;2.50;;;;;22.44;45.39;100938.13;5078174;27;45334;-50
2021/07/29 04:36:14;;;;;;;;;3.50;3.00;;;;;22.42;45.55;100935.59;5077753;27;46519;-51
2021/07/29 04:38:40;;;;;;;;;2.00;2.00;;;;;22.40;45.47;100932.16;5077791;27;45214;-51
2021/07/29 04:41:06;;;;;;;;;4.50;3.25;;;;;22.40;45.54;100932.16;5077811;27;46216;-53
2021/07/29 04:43:32;;;;;;;;;2.00;2.00;;;;;22.39;45.53;100933.13;5078361;27;45476;-51
2021/07/29 04:46:02;;;;;;;;;4.50;3.25;;;;;22.38;45.52;100936.69;5078005;28;46377;-49
2021/07/29 04:48:27;;;;;;;;;3.50;3.00;;;;;22.36;45.95;100935.94;5093753;27;45860;-49
2021/07/29 04:50:52;;;;;;;;;3.25;3.25;;;;;22.35;45.68;100944.78;5077822;27;45778;-48
2021/07/29 04:53:18;;;;;;;;;3.00;3.00;;;;;22.36;45.83;100943.84;5077456;28;47436;-47
2021/07/29 04:55:43;;;;;;;;;3.00;3.00;;;;;22.37;45.80;100940.28;5077515;27;45435;-55
2021/07/29 04:58:08;;;;;;;;;4.00;3.00;;;;;22.39;45.81;100933.13;5076854;27;53247;-54
2021/07/29 05:00:34;;;;;;;;;2.25;2.25;;;;;22.39;45.80;100935.75;5077588;27;45412;-48
2021/07/29 05:02:59;;;;;;;;;2.00;2.00;;;;;22.40;45.89;100937.44;5078036;27;45624;-49
2021/07/29 05:05:25;;;;;;;;;2.25;2.25;;;;;22.39;45.64;100941.88;5076856;27;59377;-50
2021/07/29 05:07:51;;;;;;;;;4.25;3.00;;;;;22.37;45.73;100942.91;5077368;27;45212;-48
2021/07/29 05:10:17;;;;;;;;;2.00;2.00;;;;;22.36;46.02;100941.22;5077416;27;45433;-50
2021/07/29 05:12:42;;;;;;;;;2.50;2.50;;;;;22.36;46.16;100941.22;5077428;28;45405;-51
2021/07/29 05:15:08;;;;;;;;;5.00;4.00;;;;;22.34;46.00;100956.31;5077163;27;45318;-50
2021/07/29 05:17:33;;;;;;;;;3.50;3.50;;;;;22.31;46.28;100954.69;5077738;27;45446;-50
2021/07/29 05:19:58;;;;;;;;;2.50;2.50;;;;;22.29;46.09;100951.31;5077675;27;45974;-49
2021/07/29 05:22:24;;;;;;;;;3.00;3.00;;;;;22.28;46.03;100952.25;5077054;27;45823;-53
2021/07/29 05:24:49;;;;;;;;;2.25;2.00;;;;;22.27;45.92;100953.19;5076938;27;45351;-51
2021/07/29 05:27:14;;;;;;;;;4.00;3.75;;;;;22.28;46.16;100954.03;5076956;27;45447;-53
2021/07/29 05:29:40;;;;;;;;;4.00;4.00;;;;;22.25;46.00;100960.38;5077154;27;45425;-55
2021/07/29 05:32:06;;;;;;;;;3.00;3.00;;;;;22.21;46.02;100957.03;5077289;27;45492;-54
2021/07/29 05:34:32;;;;;;;;;3.50;3.50;;;;;22.21;46.24;100957.03;5077018;28;46331;-50
2021/07/29 05:36:57;;;;;;;;;3.50;3.00;;;;;22.20;46.25;100954.50;5076826;27;45351;-52
2021/07/29 05:39:23;;;;;;;;;4.00;3.25;;;;;22.19;46.17;100956.31;5076912;27;45402;-50
2021/07/29 05:41:48;;;;;;;;;3.00;3.00;;;;;22.20;46.46;100963.28;5077075;27;45340;-49
2021/07/29 05:44:13;;;;;;;;;4.00;3.50;;;;;22.23;46.25;100968.38;5076096;27;45942;-49
2021/07/29 05:46:39;;;;;;;;;4.00;4.00;;;;;22.23;46.27;100963.09;5076734;27;45413;-49
2021/07/29 05:49:04;;;;;;;;;5.50;4.00;;;;;22.25;46.33;100973.56;5077056;27;45426;-48
2021/07/29 05:51:29;;;;;;;;;3.50;2.50;;;;;22.25;46.48;100965.66;5076930;27;45224;-53
2021/07/29 05:53:55;;;;;;;;;4.00;4.00;;;;;22.24;46.40;100974.50;5076491;27;45320;-47
2021/07/29 05:56:20;;;;;;;;;3.75;3.75;;;;;22.24;46.45;100970.06;5076280;27;56285;-47
2021/07/29 05:58:45;;;;;;;;;3.25;3.25;;;;;22.22;46.62;100964.03;5076954;27;45396;-49
2021/07/29 06:01:11;;;;;;;;;3.75;3.75;;;;;22.22;46.53;100964.03;5076881;27;45454;-50
2021/07/29 06:03:36;;;;;;;;;4.50;3.00;;;;;22.21;46.60;100962.31;5076521;27;45923;-48
2021/07/29 06:06:01;;;;;;;;;4.50;4.50;;;;;22.23;46.79;100963.09;5076665;27;45349;-49
2021/07/29 06:08:26;;;;;;;;;5.25;2.75;;;;;22.26;46.51;100961.22;5076563;27;45276;-53
2021/07/29 06:10:52;;;;;;;;;2.00;2.00;;;;;22.26;46.78;100966.50;5076745;27;45303;-51
2021/07/29 06:13:17;;;;;;;;;5.50;4.00;;;;;22.26;46.56;100962.06;5076324;27;47124;-51
2021/07/29 06:15:42;;;;;;;;;4.00;4.00;;;;;22.27;46.43;100970.81;5076147;27;52346;-50
2021/07/29 06:18:11;;;;;;;;;5.00;3.00;;;;;22.29;46.62;100982.16;5076590;27;45370;-49
2021/07/29 06:20:36;;;;;;;;;5.75;3.75;;;;;22.30;46.46;100978.56;5076601;27;45403;-47
2021/07/29 06:23:02;;;;;;;;;3.00;3.00;;;;;22.31;46.65;100983.75;5076594;27;45251;-53
2021/07/29 06:25:27;;;;;;;;;3.25;3.25;;;;;22.31;46.60;100985.56;5076218;27;45301;-52
2021/07/29 06:27:52;;;;;;;;;4.00;4.00;;;;;22.29;46.53;100982.16;5075906;28;47909;-48
2021/07/29 06:30:18;;;;;;;;;3.00;2.50;;;;;22.30;46.70;100989.13;5076603;27;45550;-53
2021/07/29 06:32:44;;;;;;;;;4.75;4.00;;;;;22.30;46.74;100986.50;5076012;27;46125;-45
2021/07/29 06:35:10;;;;;;;;;6.00;4.00;;;;;22.33;46.68;101000.34;5075966;27;45331;-46
2021/07/29 06:37:37;;;;;;;;;4.00;4.00;;;;;22.32;46.61;101001.28;5076577;27;45371;-45
2021/07/29 06:40:02;;;;;;;;;5.00;4.75;;;;;22.31;46.43;100991.66;5076522;28;45256;-46
2021/07/29 06:42:28;;;;;;;;;2.75;2.50;;;;;22.33;46.66;100994.19;5075882;27;45970;-46
2021/07/29 06:44:53;;;;;;;;;3.50;2.75;;;;;22.33;46.53;100991.56;5076009;27;45287;-44
2021/07/29 06:47:19;;;;;;;;;2.00;2.00;;;;;22.30;46.26;100989.13;5075898;27;45359;-44
2021/07/29 06:49:45;;;;;;;;;1.50;1.50;;;;;22.29;46.62;100998.81;5076178;27;45416;-52
2021/07/29 06:52:11;;;;;;;;;3.00;3.00;;;;;22.26;46.78;101001.69;5075751;27;45346;-45
2021/07/29 06:54:37;;;;;;;;;6.00;4.00;;;;;22.30;46.78;101004.97;5076368;27;45390;-46
2021/07/29 06:57:02;;;;;;;;;5.50;4.00;;;;;22.30;46.42;101003.16;5077510;28;45493;-48
2021/07/29 06:59:28;;;;;;;;;5.50;3.00;;;;;22.34;46.73;101012.63;5079581;27;45270;-49
2021/07/29 07:01:53;;;;;;;;;3.00;3.00;;;;;22.36;46.81;101010.75;5078976;28;54781;-47
2021/07/29 07:04:18;;;;;;;;;3.00;3.00;;;;;22.37;46.58;101012.44;5077694;28;53021;-48
2021/07/29 07:06:44;;;;;;;;;3.00;3.00;;;;;22.38;46.67;101013.28;5079549;27;45267;-46
2021/07/29 07:09:09;;;;;;;;;5.00;5.00;;;;;22.42;46.32;101014.84;5079692;27;45744;-47
2021/07/29 07:11:35;;;;;;;;;6.25;5.00;;;;;22.45;46.55;101019.06;5079417;27;46299;-45
2021/07/29 07:14:00;;;;;;;;;6.50;3.75;;;;;22.47;46.21;101023.31;5079051;27;45335;-44
2021/07/29 07:16:25;;;;;;;;;7.75;5.00;;;;;22.48;46.22;101025.00;5079323;27;45252;-48
2021/07/29 07:18:51;;;;;;;;;5.50;4.75;;;;;22.50;46.18;101027.53;5079186;27;45594;-46
2021/07/29 07:21:17;;;;;;;;;5.50;4.00;;;;;22.53;46.34;101027.38;5079150;27;47059;-51
2021/07/29 07:23:42;;;;;;;;;6.25;5.00;;;;;22.58;46.26;101037.66;5078952;27;45540;-45
2021/07/29 07:26:19;;;;;;;;;5.00;4.75;;;;;22.57;46.14;101028.88;5079528;27;45353;-47
2021/07/29 07:28:46;;;;;;;;;5.75;3.75;;;;;22.62;46.24;101033.88;5079480;28;45434;-48
2021/07/29 07:31:12;;;;;;;;;4.00;4.00;;;;;22.62;46.23;101032.09;5078849;27;45225;-49
2021/07/29 07:33:37;;;;;;;;;4.00;3.00;;;;;22.64;46.02;101034.66;5077918;27;45595;-47
2021/07/29 07:36:03;;;;;;;;;7.00;4.00;;;;;22.65;46.10;101031.06;5078999;27;45216;-47
2021/07/29 07:38:28;;;;;;;;;5.00;4.00;;;;;22.66;46.05;101035.38;5094862;27;45516;-45
2021/07/29 07:40:53;;;;;;;;;4.75;4.50;;;;;22.68;46.24;101030.84;5078778;27;45339;-45
2021/07/29 07:43:19;;;;;;;;;5.25;4.00;;;;;22.71;46.09;101030.69;5078678;27;45285;-45
2021/07/29 07:45:44;;;;;;;;;4.00;4.00;;;;;22.74;46.00;101034.91;5078877;27;45273;-44
2021/07/29 07:48:09;;;;;;;;;8.00;4.00;;;;;22.75;46.19;101032.19;5078950;27;45593;-45
2021/07/29 07:50:39;;;;;;;;;2.25;2.25;;;;;22.77;45.78;101035.56;5078730;27;46065;-51
2021/07/29 07:53:05;;;;;;;;;5.75;3.50;;;;;22.78;46.00;101032.00;5077512;28;45436;-49
2021/07/29 07:55:31;;;;;;;;;4.50;4.50;;;;;22.81;46.39;101030.97;5078649;28;45529;-47
2021/07/29 07:57:56;;;;;;;;;4.00;3.00;;;;;22.84;45.71;101031.63;5078522;27;45401;-46
2021/07/29 08:00:22;;;;;;;;;2.25;2.25;;;;;22.85;45.84;101020.13;5078502;27;45812;-48
2021/07/29 08:02:47;;;;;;;;;4.25;3.00;;;;;22.85;45.72;101022.75;5078431;27;45229;-47
2021/07/29 08:05:12;;;;;;;;;6.50;4.50;;;;;22.87;45.23;101022.66;5078556;27;45281;-46
2021/07/29 08:07:38;;;;;;;;;10.00;5.25;;;;;22.87;45.73;101013.88;5078369;27;45319;-48
2021/07/29 08:10:03;;;;;;;;;3.50;3.00;;;;;22.87;45.47;101022.66;5077923;28;56811;-45
2021/07/29 08:12:29;;;;;;;;;5.75;5.50;;;;;22.88;45.33;101018.19;5078271;28;45301;-44
2021/07/29 08:14:54;;;;;;;;;4.50;4.00;;;;;22.90;45.18;101021.59;5078607;27;45440;-47
2021/07/29 08:17:19;;;;;;;;;4.00;4.00;;;;;22.89;45.18;101023.41;5078535;27;45590;-46
2021/07/29 08:19:45;;;;;;;;;4.00;4.00;;;;;22.89;45.25;101019.91;5078133;27;46176;-44
2021/07/29 08:22:10;;;;;;;;;4.00;4.00;;;;;22.89;45.32;101023.41;5078538;27;45224;-44
2021/07/29 08:24:35;;;;;;;;;5.25;4.00;;;;;22.91;45.35;101023.31;5078258;27;45259;-47
2021/07/29 08:27:01;;;;;;;;;9.25;4.25;;;;;22.92;45.16;101028.50;5078393;27;45214;-49
2021/07/29 08:29:30;;;;;;;;;6.50;3.00;;;;;22.92;44.78;101027.63;5077634;27;46102;-45
2021/07/29 08:31:56;;;;;;;;;3.25;3.25;;;;;22.93;45.04;101021.41;5077966;27;45926;-48
2021/07/29 08:34:21;;;;;;;;;5.75;5.00;;;;;22.93;44.83;101024.06;5078241;27;45477;-48
2021/07/29 08:36:46;;;;;;;;;5.50;5.50;;;;;22.94;44.52;101020.47;5078319;27;45291;-45
2021/07/29 08:39:12;;;;;;;;;5.25;3.50;;;;;22.93;44.69;101019.59;5078056;27;45911;-43
2021/07/29 08:41:37;;;;;;;;;5.25;2.50;;;;;22.95;44.36;101022.19;5077961;27;45353;-47
2021/07/29 08:44:03;;;;;;;;;5.00;3.50;;;;;22.94;44.32;101021.31;5078014;27;45359;-47
2021/07/29 08:46:29;;;;;;;;;5.00;3.75;;;;;22.95;43.99;101028.28;5078130;27;45265;-47
2021/07/29 08:48:54;;;;;;;;;5.50;3.00;;;;;22.95;44.06;101022.19;5077728;27;46118;-46
2021/07/29 08:51:23;;;;;;;;;3.75;2.50;;;;;22.96;44.10;101023.88;5077741;27;45236;-47
2021/07/29 08:53:50;;;;;;;;;4.25;4.00;;;;;22.95;43.75;101016.88;5078133;27;45414;-49
2021/07/29 08:56:17;;;;;;;;;3.00;2.75;;;;;22.95;43.51;101022.19;5077864;27;45425;-48
2021/07/29 08:58:43;;;;;;;;;3.00;3.00;;;;;22.94;43.38;101023.13;5077764;27;46277;-47
2021/07/29 09:01:11;;;;;;;;;4.25;3.00;;;;;22.93;43.37;101022.25;5077678;28;45342;-45
2021/07/29 09:03:37;;;;;;;;;3.00;3.00;;;;;22.92;43.31;101015.28;5077686;27;45405;-45
2021/07/29 09:06:09;;;;;;;;;3.50;3.25;;;;;22.93;43.52;101016.97;5077807;27;45648;-47
2021/07/29 09:08:51;;;;;;;;;3.50;3.00;;;;;22.94;43.49;101015.19;5077430;27;46204;-46
2021/07/29 09:11:37;;;;;;;;;2.00;2.00;;;;;22.97;43.30;101017.66;5077431;27;45684;-46
2021/07/29 09:14:06;;;;;;;;;4.75;4.50;;;;;22.99;43.19;101018.38;5077550;27;45362;-52
2021/07/29 09:16:34;;;;;;;;;3.50;3.50;;;;;22.99;43.04;101018.38;5077686;27;45490;-47
2021/07/29 09:19:01;;;;;;;;;6.50;5.00;;;;;23.00;43.01;101012.16;5075879;27;46150;-49
2021/07/29 09:21:26;;;;;;;;;6.00;4.25;;;;;23.00;42.90;101017.44;5077390;27;45350;-54
2021/07/29 09:24:05;;;;;;;;;6.00;4.00;;;;;23.01;42.98;101011.19;5077265;27;45294;-50
2021/07/29 09:26:53;;;;;;;;;6.50;4.75;;;;;23.01;42.94;101005.91;5077548;27;45544;-48
2021/07/29 09:29:24;;;;;;;;;5.00;5.00;;;;;23.01;42.72;101003.28;5077129;27;45477;-47
2021/07/29 09:32:06;;;;;;;;;6.25;5.00;;;;;23.03;42.70;101014.59;5077272;27;45771;-49
2021/07/29 10:01:54;;;;;;;;;3.75;3.00;;;;;21.88;44.23;100986.31;5070064;28;45788;-50
2021/07/29 10:04:28;;;;;;;;;4.50;4.50;;;;;21.99;43.58;100990.97;5052878;28;45721;-51
2021/07/29 10:06:59;;;;;;;;;2.75;2.75;;;;;22.14;43.47;100997.97;5053100;28;45371;-58
2021/07/29 10:09:27;;;;;;;;;3.00;3.00;;;;;22.29;43.42;100993.53;5053235;28;45264;-55
2021/07/29 10:11:58;;;;;;;;;4.00;2.25;;;;;22.42;43.49;100995.47;5052809;28;46320;-59
2021/07/29 10:14:50;;;;;;;;;5.75;3.00;;;;;22.54;43.19;100992.94;5052617;28;45308;-63
2021/07/29 10:17:16;;;;;;;;;2.50;2.50;;;;;22.66;43.17;100993.13;5053259;28;45248;-60
2021/07/29 10:20:13;;;;;;;;;3.50;2.50;;;;;22.76;42.87;100985.47;5053136;28;45538;-53
2021/07/29 10:22:39;;;;;;;;;3.00;3.00;;;;;22.83;42.90;100990.28;5052705;28;47363;-56
2021/07/29 10:25:04;;;;;;;;;4.25;3.50;;;;;22.91;42.39;100988.94;5052584;28;45474;-61
2021/07/29 10:27:30;;;;;;;;;9.25;5.25;;;;;22.95;42.10;100983.34;5052751;28;45458;-53
2021/07/29 10:30:20;;;;;;;;;6.50;6.50;;;;;23.00;42.16;100985.72;5052673;28;45647;-62
2021/07/29 10:32:50;;;;;;;;;6.25;5.00;;;;;23.06;41.94;100984.47;5052681;28;45447;-59
2021/07/29 10:35:31;;;;;;;;;5.00;5.00;;;;;23.10;41.74;100978.88;5052793;28;45845;-58
2021/07/29 10:37:57;;;;;;;;;5.00;5.00;;;;;23.14;41.67;100974.28;5052546;28;45223;-60
2021/07/29 10:40:33;;;;;;;;;6.00;6.00;;;;;23.17;41.43;100980.22;5052598;28;45570;-61
2021/07/29 10:43:25;;;;;;;;;4.50;4.50;;;;;23.21;41.28;100972.09;5052262;28;46167;-59
2021/07/29 10:45:55;;;;;;;;;4.00;3.25;;;;;23.24;41.15;100971.91;5043699;28;45745;-56
2021/07/29 10:48:39;;;;;;;;;4.25;4.25;;;;;23.25;40.93;100976.25;5052440;28;45259;-61
2021/07/29 10:51:11;;;;;;;;;5.00;4.00;;;;;23.26;40.88;100968.19;5052582;28;45609;-56
2021/07/29 10:53:39;;;;;;;;;2.75;2.75;;;;;23.27;40.10;100972.53;5050794;28;47243;-56
2021/07/29 10:56:06;;;;;;;;;3.75;3.25;;;;;23.27;40.47;100972.53;5050959;28;45338;-54
2021/07/29 10:58:44;;;;;;;;;4.00;4.00;;;;;23.28;40.31;100978.69;5051030;28;45438;-62
2021/07/29 11:01:11;;;;;;;;;2.25;2.00;;;;;23.28;40.08;100976.06;5066808;28;45307;-57
2021/07/29 11:03:54;;;;;;;;;4.25;3.25;;;;;23.27;40.04;100977.84;5072279;28;47274;-59
2021/07/29 11:06:42;;;;;;;;;2.00;2.00;;;;;23.28;39.96;100974.25;5072385;28;45822;-53
2021/07/29 11:09:28;;;;;;;;;4.00;3.00;;;;;23.29;40.25;100973.28;5072310;28;45525;-54
2021/07/29 11:11:54;;;;;;;;;4.00;4.00;;;;;23.31;40.13;100965.28;5066530;28;45557;-54
2021/07/29 11:14:28;;;;;;;;;4.00;4.00;;;;;23.31;39.92;100975.88;5058718;28;46152;-54
2021/07/29 11:16:57;;;;;;;;;6.50;5.00;;;;;23.30;39.83;100968.88;5058502;28;45447;-55
2021/07/29 11:19:23;;;;;;;;;4.25;4.00;;;;;23.29;39.40;100975.09;5058666;28;45277;-50
2021/07/29 11:22:04;;;;;;;;;2.25;2.25;;;;;23.27;39.40;100969.91;5058995;28;45453;-52
2021/07/29 11:24:30;;;;;;;;;3.50;2.25;;;;;23.25;39.30;100960.38;5058437;28;45503;-56
2021/07/29 11:26:57;;;;;;;;;3.50;2.50;;;;;23.25;39.61;100961.25;5040322;28;45707;-57
2021/07/29 11:29:22;;;;;;;;;3.25;3.25;;;;;23.27;39.73;100961.97;5058590;28;45350;-58
2021/07/29 11:31:52;;;;;;;;;3.00;3.00;;;;;23.29;39.73;100961.88;5059047;28;45370;-55
2021/07/29 11:34:17;;;;;;;;;2.00;2.00;;;;;23.32;39.63;100964.31;5058671;28;45262;-51
2021/07/29 11:36:54;;;;;;;;;3.00;3.00;;;;;23.35;39.64;100963.28;5058221;28;45335;-58
2021/07/29 11:39:19;;;;;;;;;3.00;3.00;;;;;23.36;39.50;100957.88;5058628;28;45336;-55
2021/07/29 11:41:56;;;;;;;;;3.00;3.00;;;;;23.39;39.57;100957.69;5058370;28;45292;-57
2021/07/29 11:44:23;;;;;;;;;4.50;1.50;;;;;23.42;40.03;100960.13;5058536;28;46102;-52
2021/07/29 11:46:56;;;;;;;;;3.50;2.50;;;;;23.46;39.76;100958.13;5058508;28;45475;-56
2021/07/29 11:49:22;;;;;;;;;3.00;3.00;;;;;23.47;39.86;100954.53;5058620;28;45336;-59
2021/07/29 11:52:10;;;;;;;;;4.00;3.00;;;;;23.49;39.60;100962.38;5058626;28;45597;-54
2021/07/29 11:54:35;;;;;;;;;4.00;3.25;;;;;23.49;39.87;100963.19;5057803;28;46576;-57